sensor_id;sensor_type;location;lat;lon;timestamp;pressure;altitude;pressure_sealevel;temperature;humidity
72444;BME280;60449;52.016;5.414;2023-08-21T00:00:33;102261.94;;;19.03;76.27
72444;BME280;60449;52.016;5.414;2023-08-21T00:01:23;102262.84;;;18.93;76.38
72444;BME280;60449;52.016;5.414;2023-08-21T00:02:12;102264.69;;;18.78;76.97
72444;BME280;60449;52.016;5.414;2023-08-21T00:03:04;102262.91;;;18.79;76.59
72444;BME280;60449;52.016;5.414;2023-08-21T00:03:54;102262.06;;;18.67;76.87
72444;BME280;60449;52.016;5.414;2023-08-21T00:04:44;102262.97;;;18.65;77.02
72444;BME280;60449;52.016;5.414;2023-08-21T00:05:34;102255.91;;;18.50;77.64
72444;BME280;60449;52.016;5.414;2023-08-21T00:06:24;102261.16;;;18.73;77.76
72444;BME280;60449;52.016;5.414;2023-08-21T00:07:16;102255.88;;;18.59;77.29
72444;BME280;60449;52.016;5.414;2023-08-21T00:08:19;102262.09;;;18.60;77.82
72444;BME280;60449;52.016;5.414;2023-08-21T00:09:09;102260.34;;;18.49;78.11
72444;BME280;60449;52.016;5.414;2023-08-21T00:10:04;102260.34;;;18.55;78.11
72444;BME280;60449;52.016;5.414;2023-08-21T00:10:55;102262.97;;;18.68;77.62
72444;BME280;60449;52.016;5.414;2023-08-21T00:11:45;102261.16;;;18.68;77.71
72444;BME280;60449;52.016;5.414;2023-08-21T00:12:35;102256.72;;;18.74;77.81
72444;BME280;60449;52.016;5.414;2023-08-21T00:13:26;102258.50;;;18.75;77.57
72444;BME280;60449;52.016;5.414;2023-08-21T00:14:17;102261.16;;;18.75;77.53
72444;BME280;60449;52.016;5.414;2023-08-21T00:15:08;102259.31;;;18.83;77.22
72444;BME280;60449;52.016;5.414;2023-08-21T00:16:00;102252.22;;;18.83;77.15
72444;BME280;60449;52.016;5.414;2023-08-21T00:16:49;102260.22;;;18.82;76.82
72444;BME280;60449;52.016;5.414;2023-08-21T00:17:39;102262.91;;;18.83;76.44
72444;BME280;60449;52.016;5.414;2023-08-21T00:18:30;102259.34;;;18.78;76.61
72444;BME280;60449;52.016;5.414;2023-08-21T00:19:19;102268.25;;;18.82;76.68
72444;BME280;60449;52.016;5.414;2023-08-21T00:20:11;102260.19;;;18.90;76.29
72444;BME280;60449;52.016;5.414;2023-08-21T00:21:01;102264.59;;;19.02;75.98
72444;BME280;60449;52.016;5.414;2023-08-21T00:21:52;102262.78;;;19.11;75.45
72444;BME280;60449;52.016;5.414;2023-08-21T00:22:42;102261.88;;;19.09;75.27
72444;BME280;60449;52.016;5.414;2023-08-21T00:23:32;102258.31;;;19.14;75.12
72444;BME280;60449;52.016;5.414;2023-08-21T00:24:36;102257.44;;;19.11;75.38
72444;BME280;60449;52.016;5.414;2023-08-21T00:25:27;102262.78;;;19.08;75.56
72444;BME280;60449;52.016;5.414;2023-08-21T00:26:23;102265.50;;;18.97;76.11
72444;BME280;60449;52.016;5.414;2023-08-21T00:27:13;102261.03;;;18.95;76.10
72444;BME280;60449;52.016;5.414;2023-08-21T00:28:09;102263.72;;;18.95;76.24
72444;BME280;60449;52.016;5.414;2023-08-21T00:29:02;102261.94;;;19.00;76.09
72444;BME280;60449;52.016;5.414;2023-08-21T00:29:52;102263.66;;;19.10;75.95
72444;BME280;60449;52.016;5.414;2023-08-21T00:30:42;102265.47;;;19.05;75.68
72444;BME280;60449;52.016;5.414;2023-08-21T00:31:33;102266.41;;;19.01;75.56
72444;BME280;60449;52.016;5.414;2023-08-21T00:32:23;102266.34;;;19.07;75.53
72444;BME280;60449;52.016;5.414;2023-08-21T00:33:16;102265.47;;;19.07;75.75
72444;BME280;60449;52.016;5.414;2023-08-21T00:34:07;102260.16;;;19.01;75.83
72444;BME280;60449;52.016;5.414;2023-08-21T00:34:57;102266.38;;;18.96;76.28
72444;BME280;60449;52.016;5.414;2023-08-21T00:35:50;102266.41;;;18.87;76.77
72444;BME280;60449;52.016;5.414;2023-08-21T00:36:55;102269.09;;;18.89;77.29
72444;BME280;60449;52.016;5.414;2023-08-21T00:37:45;102261.09;;;18.90;77.26
72444;BME280;60449;52.016;5.414;2023-08-21T00:38:37;102261.94;;;19.02;76.58
72444;BME280;60449;52.016;5.414;2023-08-21T00:39:30;102260.16;;;18.94;76.27
72444;BME280;60449;52.016;5.414;2023-08-21T00:40:21;102260.13;;;19.05;76.06
72444;BME280;60449;52.016;5.414;2023-08-21T00:41:16;102260.13;;;19.11;76.26
72444;BME280;60449;52.016;5.414;2023-08-21T00:42:09;102258.38;;;19.01;76.60
72444;BME280;60449;52.016;5.414;2023-08-21T00:42:59;102261.06;;;19.01;76.33
72444;BME280;60449;52.016;5.414;2023-08-21T00:43:49;102260.16;;;18.93;76.81
72444;BME280;60449;52.016;5.414;2023-08-21T00:44:41;102254.81;;;18.93;77.09
72444;BME280;60449;52.016;5.414;2023-08-21T00:45:31;102255.69;;;18.98;76.83
72444;BME280;60449;52.016;5.414;2023-08-21T00:46:21;102261.94;;;19.05;76.61
72444;BME280;60449;52.016;5.414;2023-08-21T00:47:12;102263.69;;;19.09;76.73
72444;BME280;60449;52.016;5.414;2023-08-21T00:48:03;102254.75;;;19.15;76.40
72444;BME280;60449;52.016;5.414;2023-08-21T00:48:53;102255.63;;;19.15;76.00
72444;BME280;60449;52.016;5.414;2023-08-21T00:49:44;102261.78;;;19.27;75.70
72444;BME280;60449;52.016;5.414;2023-08-21T00:50:34;102263.66;;;19.14;76.06
72444;BME280;60449;52.016;5.414;2023-08-21T00:51:26;102256.53;;;19.09;76.40
72444;BME280;60449;52.016;5.414;2023-08-21T00:52:17;102253.81;;;19.17;76.23
72444;BME280;60449;52.016;5.414;2023-08-21T00:53:09;102258.25;;;19.26;75.72
72444;BME280;60449;52.016;5.414;2023-08-21T00:53:59;102251.13;;;19.19;75.80
72444;BME280;60449;52.016;5.414;2023-08-21T00:54:50;102252.88;;;19.23;75.89
72444;BME280;60449;52.016;5.414;2023-08-21T00:55:41;102251.09;;;19.28;75.76
72444;BME280;60449;52.016;5.414;2023-08-21T00:56:34;102252.84;;;19.32;75.68
72444;BME280;60449;52.016;5.414;2023-08-21T00:59:03;102248.56;;;19.03;76.34
72444;BME280;60449;52.016;5.414;2023-08-21T00:59:56;102248.53;;;19.08;76.01
72444;BME280;60449;52.016;5.414;2023-08-21T01:00:59;102245.78;;;19.19;75.52
72444;BME280;60449;52.016;5.414;2023-08-21T01:03:26;102241.34;;;19.16;75.90
72444;BME280;60449;52.016;5.414;2023-08-21T01:04:19;102251.13;;;19.17;75.76
72444;BME280;60449;52.016;5.414;2023-08-21T01:05:10;102246.75;;;19.11;76.12
72444;BME280;60449;52.016;5.414;2023-08-21T01:06:01;102245.88;;;19.02;76.10
72444;BME280;60449;52.016;5.414;2023-08-21T01:06:52;102246.78;;;19.07;76.21
72444;BME280;60449;52.016;5.414;2023-08-21T01:07:51;102251.16;;;19.16;76.20
72444;BME280;60449;52.016;5.414;2023-08-21T01:08:55;102246.78;;;19.04;76.61
72444;BME280;60449;52.016;5.414;2023-08-21T01:10:09;102243.22;;;19.03;76.71
72444;BME280;60449;52.016;5.414;2023-08-21T01:11:11;102244.91;;;19.15;76.42
72444;BME280;60449;52.016;5.414;2023-08-21T01:12:23;102242.28;;;19.07;76.01
72444;BME280;60449;52.016;5.414;2023-08-21T01:13:38;102242.22;;;19.20;75.71
72444;BME280;60449;52.016;5.414;2023-08-21T01:14:58;102240.41;;;19.28;75.24
72444;BME280;60449;52.016;5.414;2023-08-21T01:15:51;102237.66;;;19.34;75.07
72444;BME280;60449;52.016;5.414;2023-08-21T01:16:55;102232.31;;;19.36;75.02
72444;BME280;60449;52.016;5.414;2023-08-21T01:17:49;102238.56;;;19.33;74.80
72444;BME280;60449;52.016;5.414;2023-08-21T01:18:42;102234.16;;;19.28;75.28
72444;BME280;60449;52.016;5.414;2023-08-21T01:19:48;102233.28;;;19.24;75.59
72444;BME280;60449;52.016;5.414;2023-08-21T01:20:40;102236.81;;;19.28;75.83
72444;BME280;60449;52.016;5.414;2023-08-21T01:21:33;102234.13;;;19.34;75.27
72444;BME280;60449;52.016;5.414;2023-08-21T01:22:26;102233.25;;;19.30;75.13
72444;BME280;60449;52.016;5.414;2023-08-21T01:23:34;102237.81;;;19.09;75.82
72444;BME280;60449;52.016;5.414;2023-08-21T01:24:24;102243.28;;;18.88;76.39
72444;BME280;60449;52.016;5.414;2023-08-21T01:25:14;102245.97;;;18.78;76.95
72444;BME280;60449;52.016;5.414;2023-08-21T01:26:05;102242.41;;;18.86;77.09
72444;BME280;60449;52.016;5.414;2023-08-21T01:26:55;102239.69;;;18.89;76.72
72444;BME280;60449;52.016;5.414;2023-08-21T01:27:56;102243.22;;;19.02;76.09
72444;BME280;60449;52.016;5.414;2023-08-21T01:28:55;102243.22;;;19.05;75.77
72444;BME280;60449;52.016;5.414;2023-08-21T01:29:51;102247.66;;;19.06;75.77
72444;BME280;60449;52.016;5.414;2023-08-21T01:30:43;102233.41;;;18.97;76.01
72444;BME280;60449;52.016;5.414;2023-08-21T01:31:37;102252.19;;;18.91;76.28
72444;BME280;60449;52.016;5.414;2023-08-21T01:32:39;102241.50;;;18.88;76.07
72444;BME280;60449;52.016;5.414;2023-08-21T01:33:42;102237.94;;;18.89;75.85
72444;BME280;60449;52.016;5.414;2023-08-21T01:34:37;102244.22;;;18.80;76.38
72444;BME280;60449;52.016;5.414;2023-08-21T01:35:30;102238.84;;;18.83;76.22
72444;BME280;60449;52.016;5.414;2023-08-21T01:36:25;102237.06;;;18.86;76.17
72444;BME280;60449;52.016;5.414;2023-08-21T01:37:19;102242.38;;;18.89;75.89
72444;BME280;60449;52.016;5.414;2023-08-21T01:38:14;102245.97;;;18.85;75.83
72444;BME280;60449;52.016;5.414;2023-08-21T01:39:11;102237.97;;;18.78;76.14
72444;BME280;60449;52.016;5.414;2023-08-21T01:40:03;102246.00;;;18.81;76.19
72444;BME280;60449;52.016;5.414;2023-08-21T01:40:54;102243.31;;;18.80;76.29
72444;BME280;60449;52.016;5.414;2023-08-21T01:41:45;102247.75;;;18.79;76.53
72444;BME280;60449;52.016;5.414;2023-08-21T01:42:35;102247.81;;;18.68;76.31
72444;BME280;60449;52.016;5.414;2023-08-21T01:43:32;102248.78;;;18.53;77.09
72444;BME280;60449;52.016;5.414;2023-08-21T01:44:22;102250.59;;;18.37;77.93
72444;BME280;60449;52.016;5.414;2023-08-21T01:45:21;102245.25;;;18.47;78.19
72444;BME280;60449;52.016;5.414;2023-08-21T01:46:11;102256.81;;;18.50;77.85
72444;BME280;60449;52.016;5.414;2023-08-21T01:47:03;102251.44;;;18.55;77.34
72444;BME280;60449;52.016;5.414;2023-08-21T01:48:00;102252.31;;;18.54;77.59
72444;BME280;60449;52.016;5.414;2023-08-21T01:48:49;102246.13;;;18.47;77.78
72444;BME280;60449;52.016;5.414;2023-08-21T01:49:40;102252.31;;;18.60;77.49
72444;BME280;60449;52.016;5.414;2023-08-21T01:50:31;102254.94;;;18.65;77.32
72444;BME280;60449;52.016;5.414;2023-08-21T01:51:21;102247.81;;;18.64;76.79
72444;BME280;60449;52.016;5.414;2023-08-21T01:52:12;102252.28;;;18.68;77.04
72444;BME280;60449;52.016;5.414;2023-08-21T01:53:04;102247.88;;;18.58;76.56
72444;BME280;60449;52.016;5.414;2023-08-21T01:54:02;102241.63;;;18.63;76.94
72444;BME280;60449;52.016;5.414;2023-08-21T01:54:55;102244.25;;;18.65;76.39
72444;BME280;60449;52.016;5.414;2023-08-21T01:55:44;102248.75;;;18.61;76.25
72444;BME280;60449;52.016;5.414;2023-08-21T01:56:35;102243.38;;;18.67;76.50
72444;BME280;60449;52.016;5.414;2023-08-21T01:57:25;102241.59;;;18.66;76.08
72444;BME280;60449;52.016;5.414;2023-08-21T01:58:16;102239.78;;;18.73;75.83
72444;BME280;60449;52.016;5.414;2023-08-21T01:59:07;102246.94;;;18.66;75.97
72444;BME280;60449;52.016;5.414;2023-08-21T01:59:59;102243.34;;;18.72;76.01
72444;BME280;60449;52.016;5.414;2023-08-21T02:00:49;102242.44;;;18.76;76.00
72444;BME280;60449;52.016;5.414;2023-08-21T02:01:40;102238.91;;;18.69;75.80
72444;BME280;60449;52.016;5.414;2023-08-21T02:02:36;102243.38;;;18.63;76.41
72444;BME280;60449;52.016;5.414;2023-08-21T02:03:26;102244.31;;;18.55;76.83
72444;BME280;60449;52.016;5.414;2023-08-21T02:04:17;102241.63;;;18.63;76.35
72444;BME280;60449;52.016;5.414;2023-08-21T02:05:07;102242.53;;;18.54;76.14
72444;BME280;60449;52.016;5.414;2023-08-21T02:05:57;102240.78;;;18.50;76.53
72444;BME280;60449;52.016;5.414;2023-08-21T02:06:54;102247.03;;;18.45;76.51
72444;BME280;60449;52.016;5.414;2023-08-21T02:07:44;102243.47;;;18.41;76.69
72444;BME280;60449;52.016;5.414;2023-08-21T02:08:37;102231.00;;;18.38;76.92
72444;BME280;60449;52.016;5.414;2023-08-21T02:09:27;102247.03;;;18.34;77.14
72444;BME280;60449;52.016;5.414;2023-08-21T02:12:44;102247.09;;;18.24;77.49
72444;BME280;60449;52.016;5.414;2023-08-21T02:13:34;102239.06;;;18.18;77.67
72444;BME280;60449;52.016;5.414;2023-08-21T02:18:16;102240.00;;;18.06;78.01
72444;BME280;60449;52.016;5.414;2023-08-21T02:19:09;102237.34;;;18.05;77.77
72444;BME280;60449;52.016;5.414;2023-08-21T02:19:59;102233.78;;;18.06;77.92
72444;BME280;60449;52.016;5.414;2023-08-21T02:20:49;102237.34;;;18.06;77.62
72444;BME280;60449;52.016;5.414;2023-08-21T02:21:41;102240.91;;;18.10;77.76
72444;BME280;60449;52.016;5.414;2023-08-21T02:22:34;102242.69;;;18.03;77.75
72444;BME280;60449;52.016;5.414;2023-08-21T02:23:24;102247.13;;;18.04;77.93
72444;BME280;60449;52.016;5.414;2023-08-21T02:24:15;102243.56;;;18.02;77.82
72444;BME280;60449;52.016;5.414;2023-08-21T02:25:10;102244.44;;;18.03;77.73
72444;BME280;60449;52.016;5.414;2023-08-21T02:26:03;102243.56;;;18.04;77.64
72444;BME280;60449;52.016;5.414;2023-08-21T02:26:53;102247.97;;;18.02;77.83
72444;BME280;60449;52.016;5.414;2023-08-21T02:27:45;102245.34;;;18.00;77.89
72444;BME280;60449;52.016;5.414;2023-08-21T02:28:42;102244.44;;;18.01;77.87
72444;BME280;60449;52.016;5.414;2023-08-21T02:29:36;102244.44;;;17.96;77.96
72444;BME280;60449;52.016;5.414;2023-08-21T02:30:28;102243.53;;;18.01;78.25
72444;BME280;60449;52.016;5.414;2023-08-21T02:31:17;102244.44;;;18.12;77.81
72444;BME280;60449;52.016;5.414;2023-08-21T02:32:08;102244.47;;;18.09;77.91
72444;BME280;60449;52.016;5.414;2023-08-21T02:32:58;102238.22;;;18.05;78.20
72444;BME280;60449;52.016;5.414;2023-08-21T02:33:49;102235.53;;;18.01;77.96
72444;BME280;60449;52.016;5.414;2023-08-21T02:34:45;102240.88;;;18.01;78.04
72444;BME280;60449;52.016;5.414;2023-08-21T02:35:38;102242.66;;;17.98;78.30
72444;BME280;60449;52.016;5.414;2023-08-21T02:36:32;102247.13;;;17.98;78.32
72444;BME280;60449;52.016;5.414;2023-08-21T02:37:23;102239.09;;;17.96;78.30
72444;BME280;60449;52.016;5.414;2023-08-21T02:38:14;102240.00;;;17.92;78.55
72444;BME280;60449;52.016;5.414;2023-08-21T02:39:12;102233.75;;;17.99;78.31
72444;BME280;60449;52.016;5.414;2023-08-21T02:40:04;102247.13;;;17.98;78.33
72444;BME280;60449;52.016;5.414;2023-08-21T02:40:56;102242.66;;;17.95;78.18
72444;BME280;60449;52.016;5.414;2023-08-21T02:41:47;102246.25;;;17.91;78.57
72444;BME280;60449;52.016;5.414;2023-08-21T02:42:52;102239.09;;;17.96;78.27
72444;BME280;60449;52.016;5.414;2023-08-21T02:43:41;102236.44;;;17.98;78.45
72444;BME280;60449;52.016;5.414;2023-08-21T02:44:31;102241.78;;;18.04;78.14
72444;BME280;60449;52.016;5.414;2023-08-21T02:45:22;102240.00;;;18.12;77.68
72444;BME280;60449;52.016;5.414;2023-08-21T02:46:12;102236.44;;;18.14;77.74
72444;BME280;60449;52.016;5.414;2023-08-21T02:47:03;102238.22;;;18.05;77.75
72444;BME280;60449;52.016;5.414;2023-08-21T02:47:53;102244.44;;;17.96;78.10
72444;BME280;60449;52.016;5.414;2023-08-21T02:48:42;102251.56;;;17.79;78.62
72444;BME280;60449;52.016;5.414;2023-08-21T02:49:33;102248.00;;;17.70;79.02
72444;BME280;60449;52.016;5.414;2023-08-21T02:50:23;102248.91;;;17.69;79.46
72444;BME280;60449;52.016;5.414;2023-08-21T02:51:13;102248.91;;;17.73;79.74
72444;BME280;60449;52.016;5.414;2023-08-21T02:52:03;102251.56;;;17.73;80.08
72444;BME280;60449;52.016;5.414;2023-08-21T02:52:53;102247.16;;;17.75;80.09
72444;BME280;60449;52.016;5.414;2023-08-21T02:53:45;102258.69;;;17.77;79.86
72444;BME280;60449;52.016;5.414;2023-08-21T02:54:35;102247.13;;;17.89;79.46
72444;BME280;60449;52.016;5.414;2023-08-21T02:55:25;102248.00;;;18.00;79.12
72444;BME280;60449;52.016;5.414;2023-08-21T02:56:18;102242.69;;;18.08;78.72
72444;BME280;60449;52.016;5.414;2023-08-21T02:57:08;102245.34;;;18.11;78.42
72444;BME280;60449;52.016;5.414;2023-08-21T02:58:05;102251.56;;;18.04;78.98
72444;BME280;60449;52.016;5.414;2023-08-21T02:58:54;102251.59;;;18.07;78.67
72444;BME280;60449;52.016;5.414;2023-08-21T02:59:53;102250.69;;;18.11;78.23
72444;BME280;60449;52.016;5.414;2023-08-21T03:00:46;102249.75;;;17.99;78.32
72444;BME280;60449;52.016;5.414;2023-08-21T03:02:42;102257.78;;;17.93;78.70
72444;BME280;60449;52.016;5.414;2023-08-21T03:03:35;102255.97;;;18.02;78.50
72444;BME280;60449;52.016;5.414;2023-08-21T03:04:25;102248.00;;;18.00;78.26
72444;BME280;60449;52.016;5.414;2023-08-21T03:05:16;102254.22;;;18.04;78.00
72444;BME280;60449;52.016;5.414;2023-08-21T03:06:11;102256.91;;;18.10;78.17
72444;BME280;60449;52.016;5.414;2023-08-21T03:07:05;102256.88;;;18.16;77.64
72444;BME280;60449;52.016;5.414;2023-08-21T03:07:55;102255.09;;;18.15;77.35
72444;BME280;60449;52.016;5.414;2023-08-21T03:08:57;102255.13;;;18.17;77.40
72444;BME280;60449;52.016;5.414;2023-08-21T03:09:47;102257.75;;;18.26;77.09
72444;BME280;60449;52.016;5.414;2023-08-21T03:10:38;102258.66;;;18.23;77.21
72444;BME280;60449;52.016;5.414;2023-08-21T03:11:29;102255.13;;;18.09;77.81
72444;BME280;60449;52.016;5.414;2023-08-21T03:12:28;102257.81;;;18.09;77.76
72444;BME280;60449;52.016;5.414;2023-08-21T03:13:35;102249.78;;;18.01;78.02
72444;BME280;60449;52.016;5.414;2023-08-21T03:14:28;102253.34;;;18.08;77.77
72444;BME280;60449;52.016;5.414;2023-08-21T03:15:20;102256.00;;;18.14;77.56
72444;BME280;60449;52.016;5.414;2023-08-21T03:16:11;102257.78;;;18.01;77.48
72444;BME280;60449;52.016;5.414;2023-08-21T03:17:04;102250.69;;;18.05;77.55
72444;BME280;60449;52.016;5.414;2023-08-21T03:17:54;102253.34;;;18.09;77.57
72444;BME280;60449;52.016;5.414;2023-08-21T03:18:59;102264.00;;;17.98;77.70
72444;BME280;60449;52.016;5.414;2023-08-21T03:19:52;102252.44;;;17.99;77.69
72444;BME280;60449;52.016;5.414;2023-08-21T03:20:44;102249.75;;;17.99;77.54
72444;BME280;60449;52.016;5.414;2023-08-21T03:21:35;102247.09;;;17.96;77.56
72444;BME280;60449;52.016;5.414;2023-08-21T03:22:26;102253.34;;;17.92;77.34
72444;BME280;60449;52.016;5.414;2023-08-21T03:23:18;102250.69;;;17.92;77.42
72444;BME280;60449;52.016;5.414;2023-08-21T03:24:08;102249.78;;;17.87;77.66
72444;BME280;60449;52.016;5.414;2023-08-21T03:24:59;102251.56;;;17.91;77.71
72444;BME280;60449;52.016;5.414;2023-08-21T03:25:52;102246.22;;;17.85;77.69
72444;BME280;60449;52.016;5.414;2023-08-21T03:26:43;102251.56;;;17.88;77.61
72444;BME280;60449;52.016;5.414;2023-08-21T03:27:33;102253.34;;;17.86;77.78
72444;BME280;60449;52.016;5.414;2023-08-21T03:28:29;102251.56;;;17.90;77.44
72444;BME280;60449;52.016;5.414;2023-08-21T03:29:27;102255.09;;;17.87;77.42
72444;BME280;60449;52.016;5.414;2023-08-21T03:30:29;102250.69;;;17.88;77.50
72444;BME280;60449;52.016;5.414;2023-08-21T03:31:25;102253.34;;;17.80;77.75
72444;BME280;60449;52.016;5.414;2023-08-21T03:32:31;102248.91;;;17.79;77.45
72444;BME280;60449;52.016;5.414;2023-08-21T03:38:29;102245.34;;;17.49;78.70
72444;BME280;60449;52.016;5.414;2023-08-21T03:39:23;102238.22;;;17.49;78.42
72444;BME280;60449;52.016;5.414;2023-08-21T03:40:25;102247.13;;;17.47;78.81
72444;BME280;60449;52.016;5.414;2023-08-21T03:41:22;102241.78;;;17.44;78.92
72444;BME280;60449;52.016;5.414;2023-08-21T03:43:41;102248.03;;;17.41;79.20
72444;BME280;60449;52.016;5.414;2023-08-21T03:51:08;102240.91;;;17.48;78.69
72444;BME280;60449;52.016;5.414;2023-08-21T03:52:20;102236.47;;;17.54;78.57
72444;BME280;60449;52.016;5.414;2023-08-21T03:57:30;102242.69;;;17.61;78.11
72444;BME280;60449;52.016;5.414;2023-08-21T03:58:21;102241.78;;;17.53;78.49
72444;BME280;60449;52.016;5.414;2023-08-21T03:59:11;102247.13;;;17.58;78.51
72444;BME280;60449;52.016;5.414;2023-08-21T04:00:06;102249.81;;;17.58;78.46
72444;BME280;60449;52.016;5.414;2023-08-21T04:01:03;102249.78;;;17.61;78.08
72444;BME280;60449;52.016;5.414;2023-08-21T04:01:54;102240.91;;;17.66;77.80
72444;BME280;60449;52.016;5.414;2023-08-21T04:02:44;102240.91;;;17.54;78.06
72444;BME280;60449;52.016;5.414;2023-08-21T04:03:47;102240.91;;;17.60;78.05
72444;BME280;60449;52.016;5.414;2023-08-21T04:04:38;102240.91;;;17.48;78.08
72444;BME280;60449;52.016;5.414;2023-08-21T04:05:29;102245.34;;;17.50;78.13
72444;BME280;60449;52.016;5.414;2023-08-21T04:06:20;102243.59;;;17.52;78.06
72444;BME280;60449;52.016;5.414;2023-08-21T04:07:12;102243.59;;;17.55;77.85
72444;BME280;60449;52.016;5.414;2023-08-21T04:08:11;102252.47;;;17.59;77.81
72444;BME280;60449;52.016;5.414;2023-08-21T04:09:02;102241.81;;;17.54;77.96
72444;BME280;60449;52.016;5.414;2023-08-21T04:10:00;102242.66;;;17.50;78.07
72444;BME280;60449;52.016;5.414;2023-08-21T04:10:57;102242.69;;;17.61;77.59
72444;BME280;60449;52.016;5.414;2023-08-21T04:12:01;102245.34;;;17.47;77.72
72444;BME280;60449;52.016;5.414;2023-08-21T04:12:50;102244.47;;;17.39;77.89
72444;BME280;60449;52.016;5.414;2023-08-21T04:13:41;102242.69;;;17.46;77.75
72444;BME280;60449;52.016;5.414;2023-08-21T04:14:31;102242.66;;;17.39;77.72
72444;BME280;60449;52.016;5.414;2023-08-21T04:15:21;102243.56;;;17.38;77.75
72444;BME280;60449;52.016;5.414;2023-08-21T04:16:13;102246.22;;;17.32;77.98
72444;BME280;60449;52.016;5.414;2023-08-21T04:17:07;102243.56;;;17.29;78.11
72444;BME280;60449;52.016;5.414;2023-08-21T04:17:57;102244.44;;;17.28;78.27
72444;BME280;60449;52.016;5.414;2023-08-21T04:18:48;102249.75;;;17.28;77.98
72444;BME280;60449;52.016;5.414;2023-08-21T04:19:43;102256.88;;;17.20;78.21
72444;BME280;60449;52.016;5.414;2023-08-21T04:20:35;102252.41;;;17.20;78.66
72444;BME280;60449;52.016;5.414;2023-08-21T04:21:27;102253.31;;;17.28;78.56
72444;BME280;60449;52.016;5.414;2023-08-21T04:22:17;102257.75;;;17.25;78.89
72444;BME280;60449;52.016;5.414;2023-08-21T04:23:08;102259.53;;;17.31;78.84
72444;BME280;60449;52.016;5.414;2023-08-21T04:23:59;102258.66;;;17.39;78.58
72444;BME280;60449;52.016;5.414;2023-08-21T04:24:50;102257.78;;;17.40;78.37
72444;BME280;60449;52.016;5.414;2023-08-21T04:25:43;102253.34;;;17.30;78.75
72444;BME280;60449;52.016;5.414;2023-08-21T04:26:34;102248.00;;;17.30;79.03
72444;BME280;60449;52.016;5.414;2023-08-21T04:27:24;102248.91;;;17.43;78.82
72444;BME280;60449;52.016;5.414;2023-08-21T04:28:17;102255.09;;;17.33;78.94
72444;BME280;60449;52.016;5.414;2023-08-21T04:29:10;102257.78;;;17.37;78.67
72444;BME280;60449;52.016;5.414;2023-08-21T04:30:03;102258.66;;;17.24;78.96
72444;BME280;60449;52.016;5.414;2023-08-21T04:30:57;102255.09;;;17.19;79.03
72444;BME280;60449;52.016;5.414;2023-08-21T04:31:48;102257.75;;;17.20;79.05
72444;BME280;60449;52.016;5.414;2023-08-21T04:32:41;102261.31;;;17.27;78.96
72444;BME280;60449;52.016;5.414;2023-08-21T04:33:32;102255.97;;;17.24;78.88
72444;BME280;60449;52.016;5.414;2023-08-21T04:34:23;102261.31;;;17.35;78.43
72444;BME280;60449;52.016;5.414;2023-08-21T04:35:16;102261.34;;;17.33;78.41
72444;BME280;60449;52.016;5.414;2023-08-21T04:36:07;102263.09;;;17.30;78.17
72444;BME280;60449;52.016;5.414;2023-08-21T04:37:05;102259.53;;;17.21;78.57
72444;BME280;60449;52.016;5.414;2023-08-21T04:37:56;102264.00;;;17.22;78.58
72444;BME280;60449;52.016;5.414;2023-08-21T04:38:46;102262.22;;;17.29;78.67
72444;BME280;60449;52.016;5.414;2023-08-21T04:39:41;102259.56;;;17.37;78.34
72444;BME280;60449;52.016;5.414;2023-08-21T04:40:35;102254.22;;;17.38;78.29
72444;BME280;60449;52.016;5.414;2023-08-21T04:41:25;102262.25;;;17.37;78.20
72444;BME280;60449;52.016;5.414;2023-08-21T04:42:15;102268.44;;;17.42;78.04
72444;BME280;60449;52.016;5.414;2023-08-21T04:43:05;102256.88;;;17.41;78.40
72444;BME280;60449;52.016;5.414;2023-08-21T04:43:55;102259.59;;;17.45;78.25
72444;BME280;60449;52.016;5.414;2023-08-21T04:44:49;102261.31;;;17.42;78.29
72444;BME280;60449;52.016;5.414;2023-08-21T04:45:46;102259.56;;;17.41;78.72
72444;BME280;60449;52.016;5.414;2023-08-21T04:46:38;102256.91;;;17.37;78.62
72444;BME280;60449;52.016;5.414;2023-08-21T04:47:40;102262.25;;;17.37;78.74
72444;BME280;60449;52.016;5.414;2023-08-21T04:48:31;102261.34;;;17.38;79.02
72444;BME280;60449;52.016;5.414;2023-08-21T04:49:23;102256.00;;;17.42;79.15
72444;BME280;60449;52.016;5.414;2023-08-21T04:50:20;102261.34;;;17.49;78.77
72444;BME280;60449;52.016;5.414;2023-08-21T04:51:11;102265.81;;;17.47;79.07
72444;BME280;60449;52.016;5.414;2023-08-21T04:52:02;102265.81;;;17.59;78.76
72444;BME280;60449;52.016;5.414;2023-08-21T04:52:53;102266.69;;;17.49;78.97
72444;BME280;60449;52.016;5.414;2023-08-21T04:53:43;102269.34;;;17.55;78.98
72444;BME280;60449;52.016;5.414;2023-08-21T04:54:34;102270.22;;;17.57;78.99
72444;BME280;60449;52.016;5.414;2023-08-21T04:55:24;102268.47;;;17.58;78.69
72444;BME280;60449;52.016;5.414;2023-08-21T04:56:15;102263.13;;;17.58;78.71
72444;BME280;60449;52.016;5.414;2023-08-21T04:57:16;102267.56;;;17.69;78.49
72444;BME280;60449;52.016;5.414;2023-08-21T04:58:10;102266.66;;;17.81;78.15
72444;BME280;60449;52.016;5.414;2023-08-21T04:59:03;102269.38;;;17.84;78.15
72444;BME280;60449;52.016;5.414;2023-08-21T04:59:56;102268.47;;;17.79;77.92
72444;BME280;60449;52.016;5.414;2023-08-21T05:00:52;102264.94;;;17.68;77.88
72444;BME280;60449;52.016;5.414;2023-08-21T05:01:41;102268.47;;;17.67;78.01
72444;BME280;60449;52.016;5.414;2023-08-21T05:02:33;102270.25;;;17.71;77.94
72444;BME280;60449;52.016;5.414;2023-08-21T05:03:26;102267.59;;;17.79;77.67
72444;BME280;60449;52.016;5.414;2023-08-21T05:04:16;102269.34;;;17.88;77.46
72444;BME280;60449;52.016;5.414;2023-08-21T05:05:10;102260.44;;;17.96;76.84
72444;BME280;60449;52.016;5.414;2023-08-21T05:06:00;102266.69;;;18.00;76.55